Dubrovnik, Croatia

7:15 PM CEST on September 19, 2017 (GMT +0200)
JVP Dubrovački vatrogasci | | Change Station

Elev 0 ft 42.64 °N, 18.11 °E | Updated 1 minute ago

Partly Cloudy
Partly Cloudy
72.1 °F
Feels Like 76 °F
N
5.4
Wind Variable Wind from South
Gusts 6.9 mph

Today
High -- | Low -- °F
--% Chance of Precip.
Yesterday
High -- | Low -- °F
Precip. -- in
Pressure 29.86 in
Visibility 6.2 miles
Clouds Few 2600 ft
Scattered Clouds 7500 ft
Heat Index 76 °F
Dew Point 59 °F
Humidity 63%
Rainfall 0.00 in
Snow Depth Not available.
6:31 AM 6:50 PM
Waning Crescent, 0% visible
METAR LDDU 191700Z 14005KT 110V170 9999 FEW026 SCT075 21/16 Q1011 BECMG 14010KT
Pressure 29.86 in
Visibility 6.2 miles
Clouds Few 2600 ft
Scattered Clouds 7500 ft
Heat Index 76 °F
Dew Point 59 °F
Humidity 63%
Rainfall 0.00 in
Snow Depth Not available.
6:31 AM 6:50 PM
Waning Crescent, 0% visible
METAR LDDU 191700Z 14005KT 110V170 9999 FEW026 SCT075 21/16 Q1011 BECMG 14010KT

Get Severe Weather Alerts

Thanks for signing up!

Be on the lookout for a verification email in your inbox.

You'll start receiving the daily forecast at 6 AM.

×

10-Day Weather Forecast

×

Almanac

Astronomy

Sep. 19, 2017 Rise Set
Actual Time
Civil Twilight
Nautical Twilight
Astronomical Twilight
Moon
Length of Visible Light
Length of Day
Tomorrow will be .
, % of the Moon is Illuminated

Today's Extremes

Country Highs Country Lows

Community

WunderPhotos

Category 6

Welcome to Category 6. This is the collective home for Weather Underground's featured writeups by Dr. Jeff Masters (right), Bob Henson (left), Chris Burt, and other regular contributors.

Nearby

Air Quality

  Air Quality AQ Index Pollutant
Not available.

Snow Depth

Station Depth Elevation

Earthquake Activity

City Distance Mag. Time & Date
Minimum magnitude displayed is 2.5.

Coastal Water Temperatures

Place Temperature

Stations

Nearby Weather Stations

Station Location Temp. Windchill Dew Point Humidity Wind Precip. Elev Updated Type